In Rescue
 
Open Full Screen Window  High Contrast Mode
Wind Gusting 21 knots
10
October 25, 2021 2:59 PM EDT
Weather Information
Wind Direction
  040 °
Wind Speed
  10 kt (12 mph)
Wind Gust
  21 kt (24 mph)
Variable Wind
360°
060°
Altimeter
29.95 in
Visibility
10 SM
Temperature
10° C
50° F
Dewpoint
02° C
36° F
Humidity
58%
1hr Rain Fall
00.00 in.
24hr Rain Fall
00.00 in.
Sky Condition
Scattered @ 3,400 ft
VFR

METAR KLDM 251859Z AUTO 04010G21KT 360V060 10SM SCT034 10/02 A2995 RMK AO2 T01030024

FAA Disclaimer: The data displayed is for advisory purposes only and is not to be used for flight planning or operations.